Time,TemperatureF,DewpointF,PressureIn,WindDirection,WindDirectionDegrees,WindSpeedMPH,WindSpeedGustMPH,Humidity,HourlyPrecipIn,Conditions,Clouds,dailyrainin,SoftwareType,DateUTC
2013-01-24 00:12:00,68.0,66.0,0.00,SE,125,8.0,9.0,94,0.00,,,0.10,weatherlink.com 1.10,2013-01-24 06:12:00,
2013-01-24 00:27:00,68.0,66.0,0.00,ESE,103,5.0,8.0,94,0.00,,,0.10,weatherlink.com 1.10,2013-01-24 06:27:00,
2013-01-24 00:42:00,68.1,66.0,0.00,ESE,105,4.0,8.0,94,0.00,,,0.10,weatherlink.com 1.10,2013-01-24 06:42:00,
2013-01-24 00:58:00,68.2,67.0,0.00,ESE,109,4.0,6.0,94,0.00,,,0.10,weatherlink.com 1.10,2013-01-24 06:58:00,
2013-01-24 01:13:00,68.2,67.0,0.00,ESE,111,7.0,7.0,94,0.00,,,0.10,weatherlink.com 1.10,2013-01-24 07:13:00,
2013-01-24 01:28:00,68.2,67.0,0.00,SE,128,7.0,9.0,94,0.00,,,0.00,weatherlink.com 1.10,2013-01-24 07:28:00,
2013-01-24 01:58:00,68.0,66.0,0.00,East,92,6.0,7.0,94,0.00,,,0.00,weatherlink.com 1.10,2013-01-24 07:58:00,
2013-01-24 02:13:00,68.3,66.0,0.00,ESE,121,4.0,7.0,93,0.00,,,0.00,weatherlink.com 1.10,2013-01-24 08:13:00,
2013-01-24 02:28:00,68.2,66.0,0.00,ESE,107,3.0,7.0,93,0.00,,,0.00,weatherlink.com 1.10,2013-01-24 08:28:00,
2013-01-24 02:43:00,68.1,66.0,0.00,East,89,6.0,7.0,93,0.00,,,0.00,weatherlink.com 1.10,2013-01-24 08:43:00,
2013-01-24 02:58:00,68.1,66.0,0.00,ESE,105,5.0,9.0,93,0.00,,,0.00,weatherlink.com 1.10,2013-01-24 08:58:00,
2013-01-24 03:13:00,68.2,67.0,0.00,ESE,107,3.0,6.0,94,0.00,,,0.00,weatherlink.com 1.10,2013-01-24 09:13:00,
2013-01-24 03:28:00,68.1,66.0,0.00,East,84,5.0,5.0,93,0.00,,,0.00,weatherlink.com 1.10,2013-01-24 09:28:00,
2013-01-24 03:43:00,68.2,67.0,0.00,ESE,107,3.0,5.0,94,0.00,,,0.00,weatherlink.com 1.10,2013-01-24 09:43:00,
2013-01-24 03:58:00,68.2,67.0,0.00,SE,125,6.0,9.0,94,0.00,,,0.00,weatherlink.com 1.10,2013-01-24 09:58:00,
2013-01-24 04:13:00,68.2,67.0,0.00,ESE,119,3.0,5.0,94,0.00,,,0.00,weatherlink.com 1.10,2013-01-24 10:13:00,
2013-01-24 04:29:00,68.1,66.0,0.00,SE,136,4.0,7.0,94,0.00,,,0.00,weatherlink.com 1.10,2013-01-24 10:29:00,
2013-01-24 04:44:00,68.2,67.0,0.00,East,96,6.0,9.0,94,0.00,,,0.00,weatherlink.com 1.10,2013-01-24 10:44:00,
2013-01-24 04:59:00,68.3,67.0,0.00,SE,134,2.0,6.0,94,0.00,,,0.00,weatherlink.com 1.10,2013-01-24 10:59:00,
2013-01-24 05:14:00,68.4,67.0,0.00,ESE,109,3.0,5.0,94,0.00,,,0.00,weatherlink.com 1.10,2013-01-24 11:14:00,
2013-01-24 05:29:00,68.3,67.0,0.00,ESE,103,5.0,7.0,94,0.00,,,0.00,weatherlink.com 1.10,2013-01-24 11:29:00,
2013-01-24 05:44:00,68.3,67.0,0.00,SE,127,6.0,8.0,94,0.00,,,0.00,weatherlink.com 1.10,2013-01-24 11:44:00,
2013-01-24 05:59:00,68.3,67.0,0.00,SE,145,7.0,9.0,94,0.00,,,0.00,weatherlink.com 1.10,2013-01-24 11:59:00,
2013-01-24 06:14:00,68.2,67.0,0.00,ESE,119,3.0,9.0,94,0.00,,,0.00,weatherlink.com 1.10,2013-01-24 12:14:00,
2013-01-24 06:29:00,68.2,67.0,0.00,ESE,115,4.0,7.0,94,0.00,,,0.00,weatherlink.com 1.10,2013-01-24 12:29:00,
2013-01-24 06:44:00,68.1,66.0,0.00,ESE,120,5.0,7.0,94,0.00,,,0.00,weatherlink.com 1.10,2013-01-24 12:44:00,
2013-01-24 06:59:00,68.3,67.0,0.00,East,95,5.0,8.0,94,0.00,,,0.00,weatherlink.com 1.10,2013-01-24 12:59:00,
2013-01-24 07:14:00,68.3,67.0,0.00,ESE,111,3.0,10.0,94,0.00,,,0.00,weatherlink.com 1.10,2013-01-24 13:14:00,
2013-01-24 07:29:00,68.5,67.0,0.00,ESE,123,4.0,9.0,95,0.00,,,0.00,weatherlink.com 1.10,2013-01-24 13:29:00,
2013-01-24 07:45:00,68.9,67.0,0.00,ESE,110,3.0,10.0,94,0.00,,,0.00,weatherlink.com 1.10,2013-01-24 13:45:00,
2013-01-24 08:00:00,69.3,68.0,0.00,SSE,165,4.0,5.0,94,0.00,,,0.00,weatherlink.com 1.10,2013-01-24 14:00:00,
2013-01-24 08:15:00,69.9,68.0,0.00,SSE,168,4.0,7.0,94,0.00,,,0.00,weatherlink.com 1.10,2013-01-24 14:15:00,
2013-01-24 08:30:00,70.5,69.0,0.00,ESE,115,7.0,8.0,94,0.00,,,0.00,weatherlink.com 1.10,2013-01-24 14:30:00,
2013-01-24 08:45:00,71.2,69.0,0.00,ESE,107,5.0,10.0,94,0.00,,,0.00,weatherlink.com 1.10,2013-01-24 14:45:00,
2013-01-24 09:00:00,72.4,70.0,0.00,SE,129,9.0,11.0,92,0.00,,,0.00,weatherlink.com 1.10,2013-01-24 15:00:00,
2013-01-24 09:15:00,73.7,71.0,0.00,SE,130,4.0,12.0,90,0.00,,,0.00,weatherlink.com 1.10,2013-01-24 15:15:00,
2013-01-24 09:30:00,75.0,71.0,0.00,SSE,154,7.0,13.0,88,0.00,,,0.00,weatherlink.com 1.10,2013-01-24 15:30:00,
2013-01-24 09:45:00,75.0,70.0,0.00,SSE,152,9.0,13.0,85,0.00,,,0.00,weatherlink.com 1.10,2013-01-24 15:45:00,
2013-01-24 10:00:00,76.0,71.0,0.00,SSE,154,8.0,12.0,83,0.00,,,0.00,weatherlink.com 1.10,2013-01-24 16:00:00,
2013-01-24 10:15:00,76.4,71.0,0.00,SE,138,7.0,14.0,82,0.00,,,0.00,weatherlink.com 1.10,2013-01-24 16:15:00,
2013-01-24 10:30:00,76.6,69.0,0.00,SSE,160,9.0,15.0,78,0.00,,,0.00,weatherlink.com 1.10,2013-01-24 16:30:00,
2013-01-24 10:45:00,76.2,70.0,0.00,SE,125,5.0,13.0,81,0.00,,,0.00,weatherlink.com 1.10,2013-01-24 16:45:00,
2013-01-24 11:01:00,77.1,70.0,0.00,SSE,157,8.0,15.0,78,0.00,,,0.00,weatherlink.com 1.10,2013-01-24 17:01:00,
2013-01-24 11:16:00,77.3,70.0,0.00,SSE,164,10.0,17.0,78,0.00,,,0.00,weatherlink.com 1.10,2013-01-24 17:16:00,
2013-01-24 11:31:00,77.0,70.0,0.00,SSE,156,12.0,19.0,78,0.00,,,0.00,weatherlink.com 1.10,2013-01-24 17:31:00,
2013-01-24 11:46:00,76.6,70.0,0.00,SSE,149,11.0,19.0,80,0.00,,,0.00,weatherlink.com 1.10,2013-01-24 17:46:00,
2013-01-24 12:01:00,76.0,70.0,0.00,South,188,16.0,19.0,81,0.00,,,0.00,weatherlink.com 1.10,2013-01-24 18:01:00,
2013-01-24 12:16:00,76.1,70.0,0.00,SSE,151,10.0,17.0,80,0.00,,,0.00,weatherlink.com 1.10,2013-01-24 18:16:00,
2013-01-24 12:31:00,75.8,70.0,0.00,SSE,164,14.0,20.0,81,0.00,,,0.00,weatherlink.com 1.10,2013-01-24 18:31:00,
2013-01-24 12:46:00,75.5,68.0,0.00,SSE,161,13.0,18.0,78,0.00,,,0.00,weatherlink.com 1.10,2013-01-24 18:46:00,
2013-01-24 13:01:00,75.9,69.0,0.00,SSE,154,9.0,20.0,78,0.00,,,0.00,weatherlink.com 1.10,2013-01-24 19:01:00,
2013-01-24 13:17:00,76.0,69.0,0.00,SSW,200,14.0,20.0,80,0.00,,,0.00,weatherlink.com 1.10,2013-01-24 19:17:00,
2013-01-24 13:32:00,75.9,69.0,0.00,SSW,213,14.0,18.0,79,0.00,,,0.00,weatherlink.com 1.10,2013-01-24 19:32:00,
2013-01-24 13:47:00,76.3,69.0,0.00,SSE,150,9.0,18.0,78,0.00,,,0.00,weatherlink.com 1.10,2013-01-24 19:47:00,
2013-01-24 14:17:00,74.0,70.0,0.00,SSW,199,14.0,18.0,86,0.01,,,0.01,weatherlink.com 1.10,2013-01-24 20:17:00,
2013-01-24 14:32:00,72.8,70.0,0.00,SSE,165,5.0,12.0,91,0.08,,,0.08,weatherlink.com 1.10,2013-01-24 20:32:00,
2013-01-24 14:47:00,72.7,70.0,0.00,SE,136,7.0,12.0,90,0.09,,,0.09,weatherlink.com 1.10,2013-01-24 20:47:00,
2013-01-24 15:02:00,72.4,70.0,0.00,SE,136,6.0,8.0,91,0.09,,,0.09,weatherlink.com 1.10,2013-01-24 21:02:00,
2013-01-24 15:17:00,72.6,70.0,0.00,SE,140,4.0,7.0,91,0.08,,,0.09,weatherlink.com 1.10,2013-01-24 21:17:00,
2013-01-24 15:32:00,73.3,71.0,0.00,SE,144,3.0,6.0,91,0.01,,,0.09,weatherlink.com 1.10,2013-01-24 21:32:00,
2013-01-24 15:47:00,74.0,71.0,0.00,SSE,157,6.0,9.0,90,0.00,,,0.09,weatherlink.com 1.10,2013-01-24 21:47:00,
2013-01-24 16:02:00,74.9,71.0,0.00,SSE,161,4.0,5.0,88,0.00,,,0.09,weatherlink.com 1.10,2013-01-24 22:02:00,
2013-01-24 16:18:00,72.0,69.0,0.00,SSE,148,11.0,22.0,89,0.08,,,0.17,weatherlink.com 1.10,2013-01-24 22:18:00,
2013-01-24 16:33:00,70.4,68.0,0.00,SSE,160,7.0,14.0,92,0.14,,,0.23,weatherlink.com 1.10,2013-01-24 22:33:00,
2013-01-24 16:48:00,70.3,68.0,0.00,SE,126,3.0,7.0,93,0.15,,,0.24,weatherlink.com 1.10,2013-01-24 22:48:00,
2013-01-24 17:03:00,70.4,68.0,0.00,ESE,119,3.0,7.0,93,0.15,,,0.24,weatherlink.com 1.10,2013-01-24 23:03:00,
2013-01-24 17:18:00,70.4,69.0,0.00,SSE,149,10.0,13.0,94,0.07,,,0.25,weatherlink.com 1.10,2013-01-24 23:18:00,
2013-01-24 17:48:00,69.8,68.0,0.00,SSE,161,9.0,13.0,94,0.05,,,0.29,weatherlink.com 1.10,2013-01-24 23:48:00,
2013-01-24 18:03:00,69.6,68.0,0.00,SE,146,8.0,15.0,94,0.05,,,0.29,weatherlink.com 1.10,2013-01-25 00:03:00,
2013-01-24 18:18:00,69.4,68.0,0.00,South,179,5.0,11.0,94,0.05,,,0.30,weatherlink.com 1.10,2013-01-25 00:18:00,
2013-01-24 18:48:00,69.9,69.0,0.00,South,190,11.0,19.0,96,0.27,,,0.56,weatherlink.com 1.10,2013-01-25 00:48:00,
2013-01-24 19:03:00,69.4,68.0,0.00,SSE,156,4.0,11.0,96,0.58,,,0.87,weatherlink.com 1.10,2013-01-25 01:03:00,
2013-01-24 19:18:00,69.0,68.0,0.00,SE,128,6.0,16.0,96,0.74,,,1.04,weatherlink.com 1.10,2013-01-25 01:18:00,
2013-01-24 19:33:00,69.2,68.0,0.00,SSE,156,6.0,8.0,96,0.74,,,1.05,weatherlink.com 1.10,2013-01-25 01:33:00,
2013-01-24 19:49:00,69.3,68.0,0.00,SE,140,6.0,12.0,96,0.75,,,1.32,weatherlink.com 1.10,2013-01-25 01:49:00,
2013-01-24 20:04:00,69.5,68.0,0.00,SE,145,6.0,18.0,96,0.44,,,1.33,weatherlink.com 1.10,2013-01-25 02:04:00,
2013-01-24 20:19:00,69.5,68.0,0.00,SE,144,6.0,10.0,96,0.29,,,1.33,weatherlink.com 1.10,2013-01-25 02:19:00,
2013-01-24 20:49:00,69.4,68.0,0.00,SSE,147,4.0,12.0,96,0.01,,,1.33,weatherlink.com 1.10,2013-01-25 02:49:00,
2013-01-24 21:04:00,69.3,68.0,0.00,ESE,118,5.0,11.0,96,0.09,,,1.42,weatherlink.com 1.10,2013-01-25 03:04:00,
2013-01-24 21:19:00,69.3,68.0,0.00,SE,128,5.0,8.0,96,0.10,,,1.43,weatherlink.com 1.10,2013-01-25 03:19:00,
2013-01-24 21:49:00,69.2,68.0,0.00,SSE,154,9.0,10.0,96,0.10,,,1.43,weatherlink.com 1.10,2013-01-25 03:49:00,
2013-01-24 22:04:00,69.8,69.0,0.00,SE,128,4.0,9.0,96,0.01,,,1.43,weatherlink.com 1.10,2013-01-25 04:04:00,
2013-01-24 22:19:00,70.0,69.0,0.00,SE,141,4.0,4.0,96,0.00,,,1.43,weatherlink.com 1.10,2013-01-25 04:19:00,
2013-01-24 22:50:00,69.9,69.0,0.00,SE,132,5.0,10.0,96,0.01,,,1.44,weatherlink.com 1.10,2013-01-25 04:50:00,
2013-01-24 23:05:00,71.2,70.0,0.00,SSE,164,10.0,18.0,96,0.01,,,1.44,weatherlink.com 1.10,2013-01-25 05:05:00,
2013-01-24 23:20:00,72.3,71.0,0.00,South,184,14.0,18.0,94,0.01,,,1.44,weatherlink.com 1.10,2013-01-25 05:20:00,
2013-01-24 23:35:00,73.7,71.0,0.00,SSE,164,15.0,21.0,91,0.00,,,1.44,weatherlink.com 1.10,2013-01-25 05:35:00,
2013-01-24 23:50:00,72.4,70.0,0.00,South,176,9.0,19.0,91,0.01,,,1.45,weatherlink.com 1.10,2013-01-25 05:50:00,